createdAt,value
2023-01-17T00:01:24.376Z,41.60
2023-01-17T00:04:48.891Z,41.60
2023-01-17T00:08:14.275Z,41.60
2023-01-17T00:11:23.333Z,41.60
2023-01-17T00:14:31.405Z,41.60
2023-01-17T00:17:39.541Z,41.60
2023-01-17T00:21:04.991Z,41.60
2023-01-17T00:24:30.094Z,41.60
2023-01-17T00:27:38.297Z,41.50
2023-01-17T00:30:45.431Z,41.70
2023-01-17T00:33:52.265Z,41.70
2023-01-17T00:36:59.285Z,41.70
2023-01-17T00:40:07.270Z,41.70
2023-01-17T00:43:36.373Z,41.70
2023-01-17T00:47:01.424Z,41.70
2023-01-17T00:50:27.620Z,41.70
2023-01-17T00:53:52.899Z,41.60
2023-01-17T00:57:18.390Z,41.60
2023-01-17T01:00:45.034Z,41.70
2023-01-17T01:04:10.449Z,41.70
2023-01-17T01:07:35.623Z,41.60
2023-01-17T01:11:00.990Z,41.60
2023-01-17T01:14:26.768Z,41.60
2023-01-17T01:17:53.527Z,42.20
2023-01-17T01:21:21.361Z,42.10
2023-01-17T01:24:46.357Z,41.50
2023-01-17T01:28:11.753Z,41.60
2023-01-17T01:31:37.168Z,41.50
2023-01-17T01:34:46.479Z,41.50
2023-01-17T01:37:54.605Z,41.60
2023-01-17T01:41:02.693Z,41.50
2023-01-17T01:44:44.342Z,41.50
2023-01-17T01:47:53.476Z,41.50
2023-01-17T01:51:03.962Z,41.50
2023-01-17T01:54:12.747Z,41.40
2023-01-17T01:57:22.674Z,41.40
2023-01-17T02:00:31.825Z,41.40
2023-01-17T02:03:40.621Z,41.90
2023-01-17T02:06:50.906Z,41.30
2023-01-17T02:09:59.354Z,41.30
2023-01-17T02:13:07.730Z,41.30
2023-01-17T02:16:27.427Z,41.90
2023-01-17T02:20:00.943Z,41.20
2023-01-17T02:23:29.933Z,41.20
2023-01-17T02:26:58.940Z,41.20
2023-01-17T02:30:28.548Z,41.10
2023-01-17T02:33:39.563Z,41.10
2023-01-17T02:37:00.485Z,41.00
2023-01-17T02:40:11.464Z,41.00
2023-01-17T02:43:19.947Z,41.00
2023-01-17T02:46:29.118Z,41.00
2023-01-17T02:49:37.008Z,40.90
2023-01-17T02:52:54.562Z,40.90
2023-01-17T02:56:05.727Z,40.90
2023-01-17T02:59:19.680Z,40.90
2023-01-17T03:02:31.621Z,40.90
2023-01-17T03:05:41.416Z,40.80
2023-01-17T03:08:50.525Z,41.40
2023-01-17T03:11:58.703Z,40.80
2023-01-17T03:15:11.915Z,40.80
2023-01-17T03:18:21.415Z,40.70
2023-01-17T03:21:29.499Z,40.70
2023-01-17T03:24:37.459Z,40.70
2023-01-17T03:27:45.669Z,40.70
2023-01-17T03:30:53.814Z,40.70
2023-01-17T03:34:03.073Z,40.60
2023-01-17T03:37:11.070Z,40.60
2023-01-17T03:40:19.502Z,40.60
2023-01-17T03:43:27.652Z,40.60
2023-01-17T03:46:36.425Z,40.60
2023-01-17T03:49:45.847Z,40.60
2023-01-17T03:52:53.662Z,40.70
2023-01-17T03:56:01.811Z,41.20
2023-01-17T03:59:12.249Z,40.60
2023-01-17T04:02:21.004Z,40.60
2023-01-17T04:05:30.275Z,40.50
2023-01-17T04:08:38.355Z,40.50
2023-01-17T04:11:50.693Z,40.40
2023-01-17T04:14:58.761Z,40.50
2023-01-17T04:18:06.994Z,40.40
2023-01-17T04:21:16.467Z,40.40
2023-01-17T04:24:24.616Z,40.30
2023-01-17T04:27:32.793Z,40.30
2023-01-17T04:30:40.734Z,40.30
2023-01-17T04:33:48.643Z,40.20
2023-01-17T04:36:58.174Z,40.20
2023-01-17T04:40:07.100Z,40.20
2023-01-17T04:43:15.292Z,40.30
2023-01-17T04:46:23.547Z,40.30
2023-01-17T04:49:31.552Z,40.10
2023-01-17T04:52:40.972Z,40.20
2023-01-17T04:55:48.824Z,40.10
2023-01-17T04:58:58.072Z,40.10
2023-01-17T05:02:06.353Z,40.00
2023-01-17T05:05:14.312Z,40.00
2023-01-17T05:08:23.394Z,39.90
2023-01-17T05:11:31.366Z,39.90
2023-01-17T05:14:39.337Z,39.90
2023-01-17T05:17:47.298Z,39.90
2023-01-17T05:20:55.411Z,39.90
2023-01-17T05:24:05.202Z,39.90
2023-01-17T05:27:13.414Z,39.90
2023-01-17T05:30:21.444Z,39.90
2023-01-17T05:33:29.251Z,39.90
2023-01-17T05:36:37.270Z,39.90
2023-01-17T05:39:46.777Z,39.90
2023-01-17T05:42:55.804Z,39.80
2023-01-17T05:46:04.018Z,39.80
2023-01-17T05:49:12.085Z,39.90
2023-01-17T05:52:20.545Z,39.80
2023-01-17T05:55:30.655Z,39.80
2023-01-17T05:58:40.015Z,39.80
2023-01-17T06:01:47.850Z,40.40
2023-01-17T06:04:55.948Z,39.70
2023-01-17T06:08:04.115Z,39.80
2023-01-17T06:11:13.419Z,40.40
2023-01-17T06:14:21.229Z,39.80
2023-01-17T06:17:29.300Z,39.90
2023-01-17T06:20:37.218Z,40.10
2023-01-17T06:23:45.352Z,40.20
2023-01-17T06:26:54.751Z,40.20
2023-01-17T06:30:02.980Z,40.30
2023-01-17T06:33:11.277Z,40.50
2023-01-17T06:36:19.191Z,41.00
2023-01-17T06:39:27.181Z,40.70
2023-01-17T06:42:36.370Z,40.50
2023-01-17T06:45:44.438Z,40.40
2023-01-17T06:48:52.198Z,40.40
2023-01-17T06:52:00.275Z,40.40
2023-01-17T06:55:09.337Z,40.30
2023-01-17T06:58:18.438Z,40.20
2023-01-17T07:01:26.345Z,40.10
2023-01-17T07:04:35.814Z,39.90
2023-01-17T07:07:43.639Z,40.10
2023-01-17T07:10:51.630Z,40.00
2023-01-17T07:14:01.002Z,40.00
2023-01-17T07:17:09.111Z,40.00
2023-01-17T07:20:17.669Z,40.00
2023-01-17T07:23:25.943Z,39.90
2023-01-17T07:26:34.570Z,39.90
2023-01-17T07:29:43.833Z,39.80
2023-01-17T07:32:53.238Z,39.90
2023-01-17T07:36:03.884Z,39.80
2023-01-17T07:39:11.697Z,39.70
2023-01-17T07:42:19.675Z,39.70
2023-01-17T07:45:29.004Z,39.60
2023-01-17T07:48:37.035Z,39.50
2023-01-17T07:51:44.956Z,39.50
2023-01-17T07:54:52.908Z,39.60
2023-01-17T07:58:02.863Z,39.50
2023-01-17T08:01:13.377Z,39.40
2023-01-17T08:04:21.478Z,39.40
2023-01-17T08:07:29.559Z,39.50
2023-01-17T08:10:37.792Z,39.50
2023-01-17T08:13:45.869Z,39.50
2023-01-17T08:16:55.203Z,39.30
2023-01-17T08:20:03.777Z,39.30
2023-01-17T08:23:11.799Z,39.40
2023-01-17T08:26:22.371Z,39.30
2023-01-17T08:29:30.573Z,39.30
2023-01-17T08:32:40.809Z,39.30
2023-01-17T08:35:53.243Z,39.20
2023-01-17T08:39:01.316Z,39.20
2023-01-17T08:42:09.030Z,39.20
2023-01-17T08:45:17.291Z,39.80
2023-01-17T08:48:26.758Z,39.10
2023-01-17T08:51:35.360Z,39.70
2023-01-17T08:54:43.465Z,39.10
2023-01-17T08:57:51.256Z,39.00
2023-01-17T09:01:01.385Z,39.10
2023-01-17T09:04:11.167Z,39.10
2023-01-17T09:07:20.527Z,39.10
2023-01-17T09:10:29.020Z,39.10
2023-01-17T09:13:36.991Z,39.20
2023-01-17T09:16:45.007Z,39.10
2023-01-17T09:19:54.426Z,39.20
2023-01-17T09:23:03.605Z,39.10
2023-01-17T09:26:18.546Z,39.10
2023-01-17T09:29:26.454Z,39.10
2023-01-17T09:32:34.378Z,39.10
2023-01-17T09:35:43.910Z,39.10
2023-01-17T09:38:57.004Z,39.10
2023-01-17T09:42:11.958Z,39.10
2023-01-17T09:45:20.089Z,39.10
2023-01-17T09:48:31.945Z,39.10
2023-01-17T09:51:42.168Z,39.10
2023-01-17T09:54:50.337Z,39.10
2023-01-17T09:58:01.137Z,39.00
2023-01-17T10:01:13.054Z,39.10
2023-01-17T10:04:30.521Z,39.00
2023-01-17T10:07:42.875Z,39.10
2023-01-17T10:10:57.765Z,39.10
2023-01-17T10:14:15.519Z,39.70
2023-01-17T10:17:28.750Z,39.10
2023-01-17T10:20:45.939Z,39.00
2023-01-17T10:24:16.414Z,39.10
2023-01-17T10:27:26.102Z,39.10
2023-01-17T10:30:36.009Z,39.10
2023-01-17T10:33:46.383Z,39.10
2023-01-17T10:36:55.155Z,39.20
2023-01-17T10:40:14.030Z,39.20
2023-01-17T10:43:24.075Z,39.20
2023-01-17T10:46:34.154Z,39.10
2023-01-17T10:49:45.222Z,39.30
2023-01-17T10:52:55.553Z,39.20
2023-01-17T10:56:04.774Z,39.20
2023-01-17T10:59:22.848Z,39.10
2023-01-17T11:02:33.654Z,39.00
2023-01-17T11:05:42.775Z,39.00
2023-01-17T11:08:52.268Z,39.00
2023-01-17T11:12:01.419Z,39.10
2023-01-17T11:15:19.735Z,39.10
2023-01-17T11:18:29.354Z,39.10
2023-01-17T11:21:38.503Z,39.00
2023-01-17T11:24:49.678Z,39.00
2023-01-17T11:28:03.812Z,39.00
2023-01-17T11:31:25.667Z,39.10
2023-01-17T11:34:33.375Z,39.10
2023-01-17T11:37:42.614Z,39.10
2023-01-17T11:40:50.824Z,39.00
2023-01-17T11:44:00.080Z,39.10
2023-01-17T11:47:09.687Z,39.10
2023-01-17T11:50:26.143Z,39.00
2023-01-17T11:53:35.120Z,39.00
2023-01-17T11:56:46.033Z,39.10
2023-01-17T11:59:57.027Z,39.00
2023-01-17T12:03:18.139Z,39.10
2023-01-17T12:06:29.743Z,39.20
2023-01-17T12:09:40.960Z,39.00
2023-01-17T12:13:09.980Z,39.10
2023-01-17T12:16:30.632Z,39.00
2023-01-17T12:19:48.952Z,39.00
2023-01-17T12:23:13.714Z,39.00
2023-01-17T12:26:27.664Z,39.00
2023-01-17T12:29:44.709Z,39.00
2023-01-17T12:33:09.595Z,39.00
2023-01-17T12:36:24.891Z,39.00
2023-01-17T12:39:35.954Z,39.00
2023-01-17T12:42:45.215Z,39.10
2023-01-17T12:45:54.653Z,39.00
2023-01-17T12:49:20.348Z,39.00
2023-01-17T12:52:36.449Z,39.00
2023-01-17T12:55:49.847Z,39.00
2023-01-17T12:59:04.978Z,39.60
2023-01-17T13:02:16.650Z,39.00
2023-01-17T13:05:28.261Z,39.00
2023-01-17T13:08:41.262Z,39.00
2023-01-17T13:11:50.911Z,39.00
2023-01-17T13:14:58.932Z,39.00
2023-01-17T13:18:09.630Z,39.00
2023-01-17T13:21:34.048Z,39.00
2023-01-17T13:24:45.377Z,39.00
2023-01-17T13:28:05.006Z,39.70
2023-01-17T13:31:25.916Z,39.00
2023-01-17T13:34:42.154Z,39.00
2023-01-17T13:38:00.673Z,39.00
2023-01-17T13:41:15.031Z,39.00
2023-01-17T13:44:24.159Z,39.00
2023-01-17T13:47:42.257Z,39.00
2023-01-17T13:50:50.941Z,39.00
2023-01-17T13:54:00.375Z,39.00
2023-01-17T13:57:39.857Z,39.00
2023-01-17T14:00:54.851Z,39.00
2023-01-17T14:04:04.035Z,39.00
2023-01-17T14:07:19.855Z,39.00
2023-01-17T14:10:34.901Z,39.00
2023-01-17T14:13:43.189Z,39.00
2023-01-17T14:16:51.116Z,39.70
2023-01-17T14:20:01.126Z,39.30
2023-01-17T14:23:40.652Z,39.20
2023-01-17T14:26:51.963Z,39.50
2023-01-17T14:30:00.125Z,40.10
2023-01-17T14:33:12.163Z,39.70
2023-01-17T14:36:28.737Z,39.70
2023-01-17T14:39:45.341Z,39.50
2023-01-17T14:42:58.939Z,39.50
2023-01-17T14:46:09.162Z,39.40
2023-01-17T14:49:26.868Z,39.50
2023-01-17T14:52:35.128Z,39.40
2023-01-17T14:55:50.530Z,39.40
2023-01-17T14:59:16.911Z,39.40
2023-01-17T15:02:25.110Z,39.50
2023-01-17T15:05:33.076Z,39.40
2023-01-17T15:08:41.221Z,39.40
2023-01-17T15:11:49.816Z,39.40
2023-01-17T15:14:59.412Z,39.40
2023-01-17T15:18:26.429Z,39.40
2023-01-17T15:21:36.896Z,39.30
2023-01-17T15:24:48.828Z,39.30
2023-01-17T15:28:07.517Z,39.30
2023-01-17T15:31:18.838Z,39.40
2023-01-17T15:34:28.566Z,42.20
2023-01-17T15:37:40.227Z,40.90
2023-01-17T15:40:48.665Z,40.30
2023-01-17T15:43:58.641Z,40.80
2023-01-17T15:47:27.391Z,40.30
2023-01-17T15:50:40.619Z,40.80
2023-01-17T15:53:48.908Z,40.50
2023-01-17T15:57:19.010Z,40.50
2023-01-17T16:00:32.658Z,41.00
2023-01-17T16:03:53.328Z,40.90
2023-01-17T16:07:20.668Z,41.00
2023-01-17T16:10:31.706Z,41.00
2023-01-17T16:13:42.186Z,41.40
2023-01-17T16:16:53.532Z,41.50
2023-01-17T16:20:03.421Z,41.30
2023-01-17T16:23:11.676Z,41.20
2023-01-17T16:26:19.755Z,41.20
2023-01-17T16:29:27.802Z,41.30
2023-01-17T16:32:36.264Z,41.30
2023-01-17T16:35:48.131Z,41.40
2023-01-17T16:38:56.371Z,41.40
2023-01-17T16:42:04.789Z,41.50
2023-01-17T16:45:13.149Z,41.50
2023-01-17T16:48:21.520Z,41.50
2023-01-17T16:51:30.595Z,41.50
2023-01-17T16:54:38.582Z,41.60
2023-01-17T16:57:46.614Z,41.60
2023-01-17T17:00:56.505Z,41.60
2023-01-17T17:04:04.839Z,41.60
2023-01-17T17:07:14.169Z,41.60
2023-01-17T17:10:25.032Z,41.50
2023-01-17T17:13:35.760Z,41.50
2023-01-17T17:16:44.363Z,41.60
2023-01-17T17:19:52.395Z,41.50
2023-01-17T17:23:01.637Z,41.50
2023-01-17T17:26:09.772Z,41.40
2023-01-17T17:29:17.787Z,40.50
2023-01-17T17:32:25.698Z,41.70
2023-01-17T17:35:34.808Z,41.70
2023-01-17T17:38:51.632Z,41.70
2023-01-17T17:41:59.791Z,41.50
2023-01-17T17:45:08.174Z,41.30
2023-01-17T17:48:16.075Z,41.30
2023-01-17T17:51:25.418Z,41.30
2023-01-17T17:54:34.957Z,41.30
2023-01-17T17:57:42.736Z,41.40
2023-01-17T18:00:50.970Z,41.40
2023-01-17T18:04:02.067Z,41.60
2023-01-17T18:07:10.189Z,41.70
2023-01-17T18:10:19.890Z,41.80
2023-01-17T18:13:28.086Z,41.30
2023-01-17T18:16:36.810Z,41.10
2023-01-17T18:19:46.253Z,40.90
2023-01-17T18:22:54.568Z,40.80
2023-01-17T18:26:03.942Z,40.60
2023-01-17T18:29:14.691Z,41.20
2023-01-17T18:32:23.305Z,40.50
2023-01-17T18:35:31.467Z,40.40
2023-01-17T18:38:40.464Z,40.30
2023-01-17T18:41:50.049Z,40.30
2023-01-17T18:44:57.932Z,40.10
2023-01-17T18:48:06.484Z,40.10
2023-01-17T18:51:15.421Z,40.00
2023-01-17T18:54:23.241Z,40.00
2023-01-17T18:57:32.472Z,39.90
2023-01-17T19:00:40.578Z,39.80
2023-01-17T19:03:49.268Z,39.80
2023-01-17T19:06:57.422Z,39.70
2023-01-17T19:10:05.940Z,39.70
2023-01-17T19:13:15.443Z,39.60
2023-01-17T19:16:25.536Z,39.60
2023-01-17T19:19:33.503Z,39.50
2023-01-17T19:22:41.405Z,39.50
2023-01-17T19:25:54.083Z,39.50
2023-01-17T19:29:05.093Z,39.40
2023-01-17T19:32:13.085Z,39.50
2023-01-17T19:35:22.672Z,39.60
2023-01-17T19:38:30.735Z,39.50
2023-01-17T19:41:41.543Z,39.30
2023-01-17T19:44:50.715Z,39.30
2023-01-17T19:47:58.890Z,40.70
2023-01-17T19:51:07.704Z,40.80
2023-01-17T19:54:16.016Z,40.70
2023-01-17T19:57:24.284Z,40.50
2023-01-17T20:00:45.936Z,40.60
2023-01-17T20:03:57.382Z,41.20
2023-01-17T20:07:05.416Z,40.70
2023-01-17T20:10:13.387Z,40.50
2023-01-17T20:13:21.364Z,40.50
2023-01-17T20:16:31.402Z,40.60
2023-01-17T20:19:39.287Z,40.60
2023-01-17T20:22:47.462Z,40.60
2023-01-17T20:25:58.921Z,41.00
2023-01-17T20:29:10.156Z,41.30
2023-01-17T20:32:19.875Z,41.60
2023-01-17T20:35:29.225Z,41.20
2023-01-17T20:38:43.836Z,40.90
2023-01-17T20:41:52.024Z,40.90
2023-01-17T20:44:59.906Z,40.90
2023-01-17T20:48:09.537Z,40.90
2023-01-17T20:51:17.751Z,40.90
2023-01-17T20:54:26.117Z,40.80
2023-01-17T20:57:34.239Z,40.70
2023-01-17T21:00:42.254Z,40.60
2023-01-17T21:03:53.772Z,40.60
2023-01-17T21:07:01.862Z,40.60
2023-01-17T21:10:10.992Z,40.50
2023-01-17T21:13:19.888Z,40.50
2023-01-17T21:16:28.631Z,40.40
2023-01-17T21:19:37.945Z,40.40
2023-01-17T21:22:46.903Z,40.40
2023-01-17T21:25:58.068Z,40.40
2023-01-17T21:29:07.066Z,40.40
2023-01-17T21:32:17.304Z,40.30
2023-01-17T21:35:26.900Z,40.30
2023-01-17T21:38:34.883Z,40.30
2023-01-17T21:41:45.449Z,40.30
2023-01-17T21:44:54.165Z,40.30
2023-01-17T21:48:02.073Z,40.20
2023-01-17T21:51:11.409Z,40.20
2023-01-17T21:54:19.466Z,40.20
2023-01-17T21:57:44.923Z,40.10
2023-01-17T22:01:07.578Z,40.20
2023-01-17T22:04:15.631Z,40.10
2023-01-17T22:07:26.947Z,40.10
2023-01-17T22:10:44.444Z,40.10
2023-01-17T22:13:52.656Z,40.10
2023-01-17T22:17:00.491Z,40.10
2023-01-17T22:20:11.490Z,40.10
2023-01-17T22:23:21.326Z,40.10
2023-01-17T22:26:30.368Z,40.00
2023-01-17T22:29:38.634Z,40.30
2023-01-17T22:32:46.723Z,40.30
2023-01-17T22:35:59.052Z,40.20
2023-01-17T22:39:08.203Z,40.50
2023-01-17T22:42:16.569Z,40.00
2023-01-17T22:45:25.832Z,39.90
2023-01-17T22:48:33.682Z,39.80
2023-01-17T22:51:41.530Z,39.70
2023-01-17T22:54:51.234Z,39.60
2023-01-17T22:57:59.280Z,39.50
2023-01-17T23:01:07.817Z,39.50
2023-01-17T23:04:17.142Z,39.40
2023-01-17T23:07:26.994Z,39.40
2023-01-17T23:10:53.515Z,39.30
2023-01-17T23:14:01.378Z,39.40
2023-01-17T23:17:26.641Z,39.30
2023-01-17T23:20:34.496Z,39.20
2023-01-17T23:23:42.413Z,39.30
2023-01-17T23:27:05.564Z,39.20
2023-01-17T23:30:14.493Z,39.20
2023-01-17T23:33:22.506Z,39.20
2023-01-17T23:36:30.595Z,39.20
2023-01-17T23:39:38.685Z,39.20
2023-01-17T23:43:05.622Z,39.10
2023-01-17T23:46:13.509Z,39.10
2023-01-17T23:49:21.686Z,39.00
2023-01-17T23:52:29.639Z,39.00
2023-01-17T23:55:38.531Z,38.90
2023-01-17T23:58:47.665Z,39.00
